sensor_id;sensor_type;location;lat;lon;timestamp;pressure;altitude;pressure_sealevel;temperature;humidity
1736;BME280;865;53.672;10.250;2023-04-07T00:00:22;101422.06;;;4.47;100.00
1736;BME280;865;53.672;10.250;2023-04-07T00:02:49;101416.00;;;4.45;100.00
1736;BME280;865;53.672;10.250;2023-04-07T00:05:16;101412.47;;;4.39;100.00
1736;BME280;865;53.672;10.250;2023-04-07T00:07:42;101419.31;;;4.37;100.00
1736;BME280;865;53.672;10.250;2023-04-07T00:10:21;101416.72;;;4.35;100.00
1736;BME280;865;53.672;10.250;2023-04-07T00:12:48;101411.41;;;4.27;100.00
1736;BME280;865;53.672;10.250;2023-04-07T00:15:14;101419.09;;;4.23;100.00
1736;BME280;865;53.672;10.250;2023-04-07T00:17:41;101419.81;;;4.16;100.00
1736;BME280;865;53.672;10.250;2023-04-07T00:20:08;101419.78;;;4.14;100.00
1736;BME280;865;53.672;10.250;2023-04-07T00:22:34;101420.63;;;4.13;100.00
1736;BME280;865;53.672;10.250;2023-04-07T00:25:01;101411.94;;;4.09;100.00
1736;BME280;865;53.672;10.250;2023-04-07T00:27:27;101411.03;;;4.07;100.00
1736;BME280;865;53.672;10.250;2023-04-07T00:29:53;101418.75;;;4.04;100.00
1736;BME280;865;53.672;10.250;2023-04-07T00:32:21;101415.22;;;3.99;100.00
1736;BME280;865;53.672;10.250;2023-04-07T00:34:47;101414.31;;;3.96;100.00
1736;BME280;865;53.672;10.250;2023-04-07T00:37:14;101423.75;;;3.95;100.00
1736;BME280;865;53.672;10.250;2023-04-07T00:39:40;101417.69;;;3.93;100.00
1736;BME280;865;53.672;10.250;2023-04-07T00:42:06;101410.81;;;3.94;100.00
1736;BME280;865;53.672;10.250;2023-04-07T00:44:33;101409.97;;;3.93;100.00
1736;BME280;865;53.672;10.250;2023-04-07T00:46:59;101412.44;;;3.88;100.00
1736;BME280;865;53.672;10.250;2023-04-07T00:49:26;101412.31;;;3.81;100.00
1736;BME280;865;53.672;10.250;2023-04-07T00:51:54;101414.91;;;3.81;100.00
1736;BME280;865;53.672;10.250;2023-04-07T00:54:22;101420.13;;;3.84;100.00
1736;BME280;865;53.672;10.250;2023-04-07T00:56:49;101414.84;;;3.78;100.00
1736;BME280;865;53.672;10.250;2023-04-07T00:59:16;101424.22;;;3.74;100.00
1736;BME280;865;53.672;10.250;2023-04-07T01:02:00;101413.06;;;3.75;100.00
1736;BME280;865;53.672;10.250;2023-04-07T01:04:42;101416.50;;;3.76;100.00
1736;BME280;865;53.672;10.250;2023-04-07T01:07:15;101410.38;;;3.71;100.00
1736;BME280;865;53.672;10.250;2023-04-07T01:09:56;101411.25;;;3.71;100.00
1736;BME280;865;53.672;10.250;2023-04-07T01:15:13;101409.41;;;3.65;100.00
1736;BME280;865;53.672;10.250;2023-04-07T01:17:44;101412.06;;;3.69;100.00
1736;BME280;865;53.672;10.250;2023-04-07T01:20:16;101421.44;;;3.63;100.00
1736;BME280;865;53.672;10.250;2023-04-07T01:22:46;101413.59;;;3.59;100.00
1736;BME280;865;53.672;10.250;2023-04-07T01:25:25;101410.16;;;3.58;100.00
1736;BME280;865;53.672;10.250;2023-04-07T01:30:23;101410.09;;;3.57;100.00
1736;BME280;865;53.672;10.250;2023-04-07T01:32:52;101413.59;;;3.59;100.00
1736;BME280;865;53.672;10.250;2023-04-07T01:35:19;101413.59;;;3.59;100.00
1736;BME280;865;53.672;10.250;2023-04-07T01:37:48;101414.50;;;3.61;100.00
1736;BME280;865;53.672;10.250;2023-04-07T01:40:16;101411.00;;;3.57;100.00
1736;BME280;865;53.672;10.250;2023-04-07T01:42:44;101408.44;;;3.59;100.00
1736;BME280;865;53.672;10.250;2023-04-07T01:45:13;101411.75;;;3.53;100.00
1736;BME280;865;53.672;10.250;2023-04-07T01:47:42;101410.09;;;3.57;100.00
1736;BME280;865;53.672;10.250;2023-04-07T01:50:10;101409.25;;;3.56;100.00
1736;BME280;865;53.672;10.250;2023-04-07T01:52:37;101411.69;;;3.50;100.00
1736;BME280;865;53.672;10.250;2023-04-07T01:55:05;101413.47;;;3.51;100.00
1736;BME280;865;53.672;10.250;2023-04-07T01:57:32;101415.03;;;3.45;100.00
1736;BME280;865;53.672;10.250;2023-04-07T01:59:58;101414.28;;;3.50;100.00
1736;BME280;865;53.672;10.250;2023-04-07T02:02:25;101409.13;;;3.50;100.00
1736;BME280;865;53.672;10.250;2023-04-07T02:04:56;101416.03;;;3.51;100.00
1736;BME280;865;53.672;10.250;2023-04-07T02:07:52;101414.22;;;3.47;100.00
1736;BME280;865;53.672;10.250;2023-04-07T02:10:23;101415.13;;;3.49;100.00
1736;BME280;865;53.672;10.250;2023-04-07T02:12:51;101414.22;;;3.46;100.00
1736;BME280;865;53.672;10.250;2023-04-07T02:15:18;101413.34;;;3.45;100.00
1736;BME280;865;53.672;10.250;2023-04-07T02:17:47;101414.22;;;3.46;100.00
1736;BME280;865;53.672;10.250;2023-04-07T02:20:15;101414.28;;;3.50;100.00
1736;BME280;865;53.672;10.250;2023-04-07T02:22:43;101414.03;;;3.38;100.00
1736;BME280;865;53.672;10.250;2023-04-07T02:25:27;101412.38;;;3.40;100.00
1736;BME280;865;53.672;10.250;2023-04-07T02:27:55;101409.75;;;3.38;100.00
1736;BME280;865;53.672;10.250;2023-04-07T02:30:22;101414.75;;;3.31;100.00
1736;BME280;865;53.672;10.250;2023-04-07T02:32:48;101415.69;;;3.36;100.00
1736;BME280;865;53.672;10.250;2023-04-07T02:35:15;101414.94;;;3.40;100.00
1736;BME280;865;53.672;10.250;2023-04-07T02:37:42;101411.44;;;3.36;100.00
1736;BME280;865;53.672;10.250;2023-04-07T02:40:09;101417.41;;;3.34;100.00
1736;BME280;865;53.672;10.250;2023-04-07T02:42:36;101420.81;;;3.33;100.00
1736;BME280;865;53.672;10.250;2023-04-07T02:45:03;101429.38;;;3.32;100.00
1736;BME280;865;53.672;10.250;2023-04-07T02:47:30;101422.69;;;3.40;100.00
1736;BME280;865;53.672;10.250;2023-04-07T02:49:56;101428.78;;;3.43;100.00
1736;BME280;865;53.672;10.250;2023-04-07T02:52:23;101423.44;;;3.36;100.00
1736;BME280;865;53.672;10.250;2023-04-07T02:54:49;101428.53;;;3.31;100.00
1736;BME280;865;53.672;10.250;2023-04-07T02:57:16;101427.59;;;3.29;100.00
1736;BME280;865;53.672;10.250;2023-04-07T02:59:42;101421.75;;;3.36;100.00
1736;BME280;865;53.672;10.250;2023-04-07T03:02:09;101422.56;;;3.34;100.00
1736;BME280;865;53.672;10.250;2023-04-07T03:04:35;101422.44;;;3.29;100.00
1736;BME280;865;53.672;10.250;2023-04-07T03:07:02;101426.75;;;3.29;100.00
1736;BME280;865;53.672;10.250;2023-04-07T03:09:28;101425.94;;;3.31;100.00
1736;BME280;865;53.672;10.250;2023-04-07T03:11:54;101419.13;;;3.33;100.00
1736;BME280;865;53.672;10.250;2023-04-07T03:14:21;101429.31;;;3.29;100.00
1736;BME280;865;53.672;10.250;2023-04-07T03:16:47;101429.38;;;3.32;100.00
1736;BME280;865;53.672;10.250;2023-04-07T03:19:14;101424.09;;;3.26;100.00
1736;BME280;865;53.672;10.250;2023-04-07T03:21:41;101427.53;;;3.26;100.00
1736;BME280;865;53.672;10.250;2023-04-07T03:24:07;101430.16;;;3.28;100.00
1736;BME280;865;53.672;10.250;2023-04-07T03:26:34;101421.56;;;3.27;100.00
1736;BME280;865;53.672;10.250;2023-04-07T03:29:00;101423.31;;;3.30;100.00
1736;BME280;865;53.672;10.250;2023-04-07T03:31:26;101427.53;;;3.26;100.00
1736;BME280;865;53.672;10.250;2023-04-07T03:33:53;101431.78;;;3.24;100.00
1736;BME280;865;53.672;10.250;2023-04-07T03:36:19;101428.41;;;3.27;100.00
1736;BME280;865;53.672;10.250;2023-04-07T03:38:46;101426.63;;;3.24;100.00
1736;BME280;865;53.672;10.250;2023-04-07T03:41:13;101436.72;;;3.13;100.00
1736;BME280;865;53.672;10.250;2023-04-07T03:43:39;101428.16;;;3.14;100.00
1736;BME280;865;53.672;10.250;2023-04-07T03:46:06;101430.53;;;3.05;100.00
1736;BME280;865;53.672;10.250;2023-04-07T03:48:32;101429.41;;;2.94;100.00
1736;BME280;865;53.672;10.250;2023-04-07T03:50:59;101433.75;;;2.95;100.00
1736;BME280;865;53.672;10.250;2023-04-07T03:53:25;101435.34;;;2.90;100.00
1736;BME280;865;53.672;10.250;2023-04-07T03:55:52;101439.69;;;2.92;100.00
1736;BME280;865;53.672;10.250;2023-04-07T03:58:18;101443.88;;;2.87;100.00
1736;BME280;865;53.672;10.250;2023-04-07T04:00:45;101446.31;;;2.81;100.00
1736;BME280;865;53.672;10.250;2023-04-07T04:03:11;101453.81;;;2.72;100.00
1736;BME280;865;53.672;10.250;2023-04-07T04:05:37;101447.72;;;2.68;100.00
1736;BME280;865;53.672;10.250;2023-04-07T04:08:05;101454.59;;;2.68;100.00
1736;BME280;865;53.672;10.250;2023-04-07T04:10:32;101451.13;;;2.67;100.00
1736;BME280;865;53.672;10.250;2023-04-07T04:12:58;101460.34;;;2.58;100.00
1736;BME280;865;53.672;10.250;2023-04-07T04:15:29;101460.25;;;2.53;100.00
1736;BME280;865;53.672;10.250;2023-04-07T04:17:56;101465.31;;;2.50;100.00
1736;BME280;865;53.672;10.250;2023-04-07T04:20:22;101457.53;;;2.48;100.00
1736;BME280;865;53.672;10.250;2023-04-07T04:22:48;101467.81;;;2.47;100.00
1736;BME280;865;53.672;10.250;2023-04-07T04:25:16;101475.28;;;2.38;100.00
1736;BME280;865;53.672;10.250;2023-04-07T04:27:42;101474.06;;;2.23;100.00
1736;BME280;865;53.672;10.250;2023-04-07T04:30:09;101481.56;;;2.14;100.00
1736;BME280;865;53.672;10.250;2023-04-07T04:32:35;101466.78;;;2.07;100.00
1736;BME280;865;53.672;10.250;2023-04-07T04:35:01;101466.66;;;2.02;100.00
1736;BME280;865;53.672;10.250;2023-04-07T04:37:28;101474.41;;;2.04;100.00
1736;BME280;865;53.672;10.250;2023-04-07T04:39:54;101487.19;;;2.01;100.00
1736;BME280;865;53.672;10.250;2023-04-07T04:42:20;101478.63;;;2.02;100.00
1736;BME280;865;53.672;10.250;2023-04-07T04:44:47;101492.41;;;2.04;100.00
1736;BME280;865;53.672;10.250;2023-04-07T04:47:13;101493.34;;;2.06;100.00
1736;BME280;865;53.672;10.250;2023-04-07T04:49:39;101495.91;;;2.06;100.00
1736;BME280;865;53.672;10.250;2023-04-07T04:52:06;101491.50;;;2.02;100.00
1736;BME280;865;53.672;10.250;2023-04-07T04:54:33;101494.13;;;2.03;100.00
1736;BME280;865;53.672;10.250;2023-04-07T04:56:59;101505.34;;;2.05;100.00
1736;BME280;865;53.672;10.250;2023-04-07T04:59:26;101497.72;;;2.10;100.00
1736;BME280;865;53.672;10.250;2023-04-07T05:01:53;101504.28;;;1.99;100.00
1736;BME280;865;53.672;10.250;2023-04-07T05:04:19;101511.63;;;1.85;100.00
1736;BME280;865;53.672;10.250;2023-04-07T05:06:46;101510.53;;;1.77;100.00
1736;BME280;865;53.672;10.250;2023-04-07T05:09:13;101511.22;;;1.71;100.00
1736;BME280;865;53.672;10.250;2023-04-07T05:11:40;101517.28;;;1.73;100.00
1736;BME280;865;53.672;10.250;2023-04-07T05:14:06;101522.34;;;1.70;100.00
1736;BME280;865;53.672;10.250;2023-04-07T05:16:33;101522.53;;;1.76;100.00
1736;BME280;865;53.672;10.250;2023-04-07T05:19:00;101534.47;;;1.74;100.00
1736;BME280;865;53.672;10.250;2023-04-07T05:21:26;101529.47;;;1.79;100.00
1736;BME280;865;53.672;10.250;2023-04-07T05:23:53;101531.03;;;1.74;100.00
1736;BME280;865;53.672;10.250;2023-04-07T05:26:19;101521.59;;;1.74;100.00
1736;BME280;865;53.672;10.250;2023-04-07T05:28:46;101529.47;;;1.79;100.00
1736;BME280;865;53.672;10.250;2023-04-07T05:31:12;101536.56;;;1.88;100.00
1736;BME280;865;53.672;10.250;2023-04-07T05:33:39;101532.50;;;1.96;100.00
1736;BME280;865;53.672;10.250;2023-04-07T05:36:06;101534.47;;;2.04;100.00
1736;BME280;865;53.672;10.250;2023-04-07T05:38:32;101546.78;;;2.15;100.00
1736;BME280;865;53.672;10.250;2023-04-07T05:40:59;101544.44;;;2.24;100.00
1736;BME280;865;53.672;10.250;2023-04-07T05:43:25;101545.53;;;2.32;100.00
1736;BME280;865;53.672;10.250;2023-04-07T05:45:51;101543.94;;;2.37;100.00
1736;BME280;865;53.672;10.250;2023-04-07T05:48:18;101553.69;;;2.49;100.00
1736;BME280;865;53.672;10.250;2023-04-07T05:50:44;101543.50;;;2.54;100.00
1736;BME280;865;53.672;10.250;2023-04-07T05:53:11;101554.00;;;2.61;100.00
1736;BME280;865;53.672;10.250;2023-04-07T05:55:37;101552.56;;;2.72;100.00
1736;BME280;865;53.672;10.250;2023-04-07T05:58:03;101560.53;;;2.82;100.00
1736;BME280;865;53.672;10.250;2023-04-07T06:00:30;101558.97;;;2.88;100.00
1736;BME280;865;53.672;10.250;2023-04-07T06:02:56;101560.03;;;2.95;100.00
1736;BME280;865;53.672;10.250;2023-04-07T06:05:23;101559.41;;;3.05;100.00
1736;BME280;865;53.672;10.250;2023-04-07T06:07:49;101566.34;;;3.09;100.00
1736;BME280;865;53.672;10.250;2023-04-07T06:10:16;101564.63;;;3.08;100.00
1736;BME280;865;53.672;10.250;2023-04-07T06:12:42;101569.94;;;3.14;100.00
1736;BME280;865;53.672;10.250;2023-04-07T06:15:09;101567.50;;;3.20;100.00
1736;BME280;865;53.672;10.250;2023-04-07T06:17:35;101569.41;;;3.28;100.00
1736;BME280;865;53.672;10.250;2023-04-07T06:20:02;101572.13;;;3.34;100.00
1736;BME280;865;53.672;10.250;2023-04-07T06:22:28;101575.66;;;3.39;100.00
1736;BME280;865;53.672;10.250;2023-04-07T06:24:55;101580.25;;;3.52;100.00
1736;BME280;865;53.672;10.250;2023-04-07T06:27:21;101582.97;;;3.58;100.00
1736;BME280;865;53.672;10.250;2023-04-07T06:29:48;101579.66;;;3.64;100.00
1736;BME280;865;53.672;10.250;2023-04-07T06:32:14;101586.75;;;3.74;100.00
1736;BME280;865;53.672;10.250;2023-04-07T06:34:40;101576.63;;;3.83;100.00
1736;BME280;865;53.672;10.250;2023-04-07T06:37:07;101588.94;;;3.95;100.00
1736;BME280;865;53.672;10.250;2023-04-07T06:39:33;101591.69;;;4.04;100.00
1736;BME280;865;53.672;10.250;2023-04-07T06:41:59;101588.31;;;4.05;100.00
1736;BME280;865;53.672;10.250;2023-04-07T06:44:26;101589.28;;;4.10;100.00
1736;BME280;865;53.672;10.250;2023-04-07T06:46:53;101588.47;;;4.15;100.00
1736;BME280;865;53.672;10.250;2023-04-07T06:49:20;101589.53;;;4.23;100.00
1736;BME280;865;53.672;10.250;2023-04-07T06:51:46;101590.63;;;4.36;100.00
1736;BME280;865;53.672;10.250;2023-04-07T06:54:13;101583.16;;;4.49;100.00
1736;BME280;865;53.672;10.250;2023-04-07T06:56:41;101591.97;;;4.62;100.00
1736;BME280;865;53.672;10.250;2023-04-07T06:59:08;101603.41;;;4.73;100.00
1736;BME280;865;53.672;10.250;2023-04-07T07:01:34;101590.72;;;4.89;100.00
1736;BME280;865;53.672;10.250;2023-04-07T07:04:03;101596.22;;;5.07;100.00
1736;BME280;865;53.672;10.250;2023-04-07T07:06:31;101595.44;;;5.14;100.00
1736;BME280;865;53.672;10.250;2023-04-07T07:08:58;101595.44;;;5.13;100.00
1736;BME280;865;53.672;10.250;2023-04-07T07:11:25;101599.81;;;5.17;100.00
1736;BME280;865;53.672;10.250;2023-04-07T07:13:52;101599.00;;;5.19;100.00
1736;BME280;865;53.672;10.250;2023-04-07T07:16:18;101603.31;;;5.19;100.00
1736;BME280;865;53.672;10.250;2023-04-07T07:18:45;101609.53;;;5.32;100.00
1736;BME280;865;53.672;10.250;2023-04-07T07:21:12;101602.81;;;5.41;100.00
1736;BME280;865;53.672;10.250;2023-04-07T07:23:38;101613.34;;;5.54;100.00
1736;BME280;865;53.672;10.250;2023-04-07T07:26:04;101605.72;;;5.63;100.00
1736;BME280;865;53.672;10.250;2023-04-07T07:28:31;101610.16;;;5.71;100.00
1736;BME280;865;53.672;10.250;2023-04-07T07:30:57;101606.00;;;5.84;100.00
1736;BME280;865;53.672;10.250;2023-04-07T07:33:23;101614.91;;;6.02;100.00
1736;BME280;865;53.672;10.250;2023-04-07T07:35:50;101618.44;;;6.07;100.00
1736;BME280;865;53.672;10.250;2023-04-07T07:38:16;101621.06;;;6.11;100.00
1736;BME280;865;53.672;10.250;2023-04-07T07:40:42;101625.31;;;6.05;100.00
1736;BME280;865;53.672;10.250;2023-04-07T07:43:09;101624.50;;;6.12;100.00
1736;BME280;865;53.672;10.250;2023-04-07T07:45:35;101626.44;;;6.25;100.00
1736;BME280;865;53.672;10.250;2023-04-07T07:48:02;101627.53;;;6.46;100.00
1736;BME280;865;53.672;10.250;2023-04-07T07:50:28;101627.69;;;6.62;100.00
1736;BME280;865;53.672;10.250;2023-04-07T07:52:55;101632.09;;;6.67;98.58
1736;BME280;865;53.672;10.250;2023-04-07T07:55:21;101632.28;;;6.87;100.00
1736;BME280;865;53.672;10.250;2023-04-07T07:57:48;101634.88;;;6.90;100.00
1736;BME280;865;53.672;10.250;2023-04-07T08:00:14;101637.50;;;6.93;99.22
1736;BME280;865;53.672;10.250;2023-04-07T08:02:40;101642.06;;;7.15;100.00
1736;BME280;865;53.672;10.250;2023-04-07T08:05:07;101643.84;;;7.22;98.73
1736;BME280;865;53.672;10.250;2023-04-07T08:07:33;101639.53;;;7.24;92.32
1736;BME280;865;53.672;10.250;2023-04-07T08:10:00;101644.00;;;7.39;91.43
1736;BME280;865;53.672;10.250;2023-04-07T08:12:27;101643.91;;;7.30;87.30
1736;BME280;865;53.672;10.250;2023-04-07T08:14:53;101647.44;;;7.37;84.48
1736;BME280;865;53.672;10.250;2023-04-07T08:17:19;101647.53;;;7.50;89.26
1736;BME280;865;53.672;10.250;2023-04-07T08:19:46;101655.44;;;7.66;85.22
1736;BME280;865;53.672;10.250;2023-04-07T08:22:12;101652.00;;;7.68;87.29
1736;BME280;865;53.672;10.250;2023-04-07T08:24:39;101651.22;;;7.85;85.42
1736;BME280;865;53.672;10.250;2023-04-07T08:27:05;101648.63;;;7.83;84.03
1736;BME280;865;53.672;10.250;2023-04-07T08:29:31;101651.97;;;7.67;81.79
1736;BME280;865;53.672;10.250;2023-04-07T08:31:58;101658.09;;;7.70;82.04
1736;BME280;865;53.672;10.250;2023-04-07T08:34:24;101658.22;;;7.96;87.64
1736;BME280;865;53.672;10.250;2023-04-07T08:36:51;101649.69;;;8.23;83.33
1736;BME280;865;53.672;10.250;2023-04-07T08:39:17;101650.72;;;8.50;87.25
1736;BME280;865;53.672;10.250;2023-04-07T08:41:45;101643.72;;;8.37;76.49
1736;BME280;865;53.672;10.250;2023-04-07T08:44:13;101651.47;;;8.32;80.52
1736;BME280;865;53.672;10.250;2023-04-07T08:46:40;101662.84;;;8.42;82.73
1736;BME280;865;53.672;10.250;2023-04-07T08:49:10;101659.16;;;8.05;77.51
1736;BME280;865;53.672;10.250;2023-04-07T08:51:44;101658.28;;;8.07;72.45
1736;BME280;865;53.672;10.250;2023-04-07T08:54:13;101655.78;;;8.29;72.92
1736;BME280;865;53.672;10.250;2023-04-07T08:56:41;101662.03;;;8.64;72.26
1736;BME280;865;53.672;10.250;2023-04-07T08:59:10;101660.38;;;8.91;69.51
1736;BME280;865;53.672;10.250;2023-04-07T09:01:37;101666.31;;;8.56;66.83
1736;BME280;865;53.672;10.250;2023-04-07T09:04:05;101668.84;;;8.36;68.50
1736;BME280;865;53.672;10.250;2023-04-07T09:06:33;101664.66;;;8.75;73.51
1736;BME280;865;53.672;10.250;2023-04-07T09:09:02;101659.47;;;8.78;68.42
1736;BME280;865;53.672;10.250;2023-04-07T09:11:35;101656.88;;;8.81;70.13
1736;BME280;865;53.672;10.250;2023-04-07T09:14:02;101656.91;;;8.94;74.51
1736;BME280;865;53.672;10.250;2023-04-07T09:16:28;101656.00;;;8.78;65.88
1736;BME280;865;53.672;10.250;2023-04-07T09:18:57;101662.06;;;8.77;69.52
1736;BME280;865;53.672;10.250;2023-04-07T09:21:23;101659.47;;;8.83;73.90
1736;BME280;865;53.672;10.250;2023-04-07T09:23:49;101656.88;;;8.89;71.50
1736;BME280;865;53.672;10.250;2023-04-07T09:26:23;101658.63;;;8.88;74.25
1736;BME280;865;53.672;10.250;2023-04-07T09:28:52;101662.06;;;8.77;74.75
1736;BME280;865;53.672;10.250;2023-04-07T09:31:19;101655.13;;;8.77;74.84
1736;BME280;865;53.672;10.250;2023-04-07T09:33:48;101659.47;;;8.72;82.35
1736;BME280;865;53.672;10.250;2023-04-07T09:36:15;101653.41;;;8.82;84.86
1736;BME280;865;53.672;10.250;2023-04-07T09:38:43;101652.56;;;8.88;85.41
1736;BME280;865;53.672;10.250;2023-04-07T09:41:15;101652.56;;;9.00;85.80
1736;BME280;865;53.672;10.250;2023-04-07T09:43:43;101658.66;;;9.05;84.79
1736;BME280;865;53.672;10.250;2023-04-07T09:46:17;101656.06;;;9.02;75.68
1736;BME280;865;53.672;10.250;2023-04-07T09:48:45;101650.00;;;9.02;77.63
1736;BME280;865;53.672;10.250;2023-04-07T09:51:13;101651.72;;;9.15;77.14
1736;BME280;865;53.672;10.250;2023-04-07T09:53:42;101648.22;;;8.87;72.70
1736;BME280;865;53.672;10.250;2023-04-07T09:56:09;101653.44;;;8.96;76.66
1736;BME280;865;53.672;10.250;2023-04-07T09:58:37;101648.22;;;8.87;75.84
1736;BME280;865;53.672;10.250;2023-04-07T10:01:06;101651.69;;;8.90;74.88
1736;BME280;865;53.672;10.250;2023-04-07T10:03:35;101649.06;;;8.80;72.62
1736;BME280;865;53.672;10.250;2023-04-07T10:06:02;101645.63;;;8.99;78.13
1736;BME280;865;53.672;10.250;2023-04-07T10:08:31;101647.38;;;9.12;75.79
1736;BME280;865;53.672;10.250;2023-04-07T10:10:59;101643.06;;;9.25;80.45
1736;BME280;865;53.672;10.250;2023-04-07T10:13:28;101654.31;;;9.12;75.55
1736;BME280;865;53.672;10.250;2023-04-07T10:15:55;101652.56;;;9.12;78.38
1736;BME280;865;53.672;10.250;2023-04-07T10:18:28;101649.13;;;9.24;82.59
1736;BME280;865;53.672;10.250;2023-04-07T10:20:59;101654.31;;;9.53;86.31
1736;BME280;865;53.672;10.250;2023-04-07T10:23:35;101651.72;;;9.47;80.42
1736;BME280;865;53.672;10.250;2023-04-07T10:26:05;101650.84;;;9.33;73.78
1736;BME280;865;53.672;10.250;2023-04-07T10:28:37;101653.44;;;9.08;76.32
1736;BME280;865;53.672;10.250;2023-04-07T10:31:04;101655.19;;;9.19;76.77
1736;BME280;865;53.672;10.250;2023-04-07T10:33:51;101657.78;;;9.12;79.08
1736;BME280;865;53.672;10.250;2023-04-07T10:36:21;101657.81;;;9.32;90.68
1736;BME280;865;53.672;10.250;2023-04-07T10:41:39;101658.66;;;9.64;79.98
1736;BME280;865;53.672;10.250;2023-04-07T10:44:07;101663.88;;;9.42;74.08
1736;BME280;865;53.672;10.250;2023-04-07T10:49:14;101659.53;;;9.47;68.71
1736;BME280;865;53.672;10.250;2023-04-07T10:52:33;101656.94;;;9.53;69.85
1736;BME280;865;53.672;10.250;2023-04-07T10:54:34;101660.41;;;9.55;69.18
1736;BME280;865;53.672;10.250;2023-04-07T10:57:04;101658.66;;;9.70;71.46
1736;BME280;865;53.672;10.250;2023-04-07T10:59:33;101653.44;;;9.54;67.41
1736;BME280;865;53.672;10.250;2023-04-07T11:04:41;101664.75;;;9.40;65.36
1736;BME280;865;53.672;10.250;2023-04-07T11:07:12;101655.19;;;9.48;64.89
1736;BME280;865;53.672;10.250;2023-04-07T11:09:39;101652.59;;;9.54;65.18
1736;BME280;865;53.672;10.250;2023-04-07T11:12:06;101661.25;;;9.48;67.69
1736;BME280;865;53.672;10.250;2023-04-07T11:14:33;101659.53;;;9.21;63.48
1736;BME280;865;53.672;10.250;2023-04-07T11:17:02;101656.06;;;9.02;68.04
1736;BME280;865;53.672;10.250;2023-04-07T11:19:29;101653.47;;;9.33;69.64
1736;BME280;865;53.672;10.250;2023-04-07T11:22:14;101654.31;;;9.53;69.11
1736;BME280;865;53.672;10.250;2023-04-07T11:24:55;101651.69;;;9.75;69.35
1736;BME280;865;53.672;10.250;2023-04-07T11:27:22;101662.97;;;9.80;69.13
1736;BME280;865;53.672;10.250;2023-04-07T11:29:48;101653.47;;;9.67;64.80
1736;BME280;865;53.672;10.250;2023-04-07T11:32:15;101655.19;;;9.63;68.07
1736;BME280;865;53.672;10.250;2023-04-07T11:34:50;101649.97;;;9.74;69.09
1736;BME280;865;53.672;10.250;2023-04-07T11:37:24;101658.66;;;9.70;67.65
1736;BME280;865;53.672;10.250;2023-04-07T11:39:57;101658.66;;;9.65;85.24
1736;BME280;865;53.672;10.250;2023-04-07T11:42:33;101651.66;;;9.98;76.26
1736;BME280;865;53.672;10.250;2023-04-07T11:45:01;101661.25;;;9.74;74.69
1736;BME280;865;53.672;10.250;2023-04-07T11:47:37;101655.22;;;9.40;73.09
1736;BME280;865;53.672;10.250;2023-04-07T11:50:04;101657.81;;;9.49;86.68
1736;BME280;865;53.672;10.250;2023-04-07T11:52:47;101658.66;;;9.57;100.00
1736;BME280;865;53.672;10.250;2023-04-07T11:55:20;101660.38;;;9.78;100.00
1736;BME280;865;53.672;10.250;2023-04-07T11:57:47;101663.88;;;9.54;100.00
1736;BME280;865;53.672;10.250;2023-04-07T12:00:16;101662.13;;;9.56;100.00
1736;BME280;865;53.672;10.250;2023-04-07T12:02:43;101663.88;;;9.57;100.00
1736;BME280;865;53.672;10.250;2023-04-07T12:05:10;101663.84;;;9.74;100.00
1736;BME280;865;53.672;10.250;2023-04-07T12:07:37;101662.16;;;9.50;99.16
1736;BME280;865;53.672;10.250;2023-04-07T12:10:18;101654.31;;;9.40;99.74
1736;BME280;865;53.672;10.250;2023-04-07T12:12:45;101660.41;;;9.68;100.00
1736;BME280;865;53.672;10.250;2023-04-07T12:15:12;101664.72;;;9.79;100.00
1736;BME280;865;53.672;10.250;2023-04-07T12:17:43;101659.50;;;9.82;91.37
1736;BME280;865;53.672;10.250;2023-04-07T12:20:11;101656.06;;;9.68;87.66
1736;BME280;865;53.672;10.250;2023-04-07T12:22:37;101654.28;;;9.78;100.00
1736;BME280;865;53.672;10.250;2023-04-07T12:25:04;101655.94;;;10.11;100.00
1736;BME280;865;53.672;10.250;2023-04-07T12:27:30;101654.28;;;9.89;100.00
1736;BME280;865;53.672;10.250;2023-04-07T12:30:08;101664.72;;;9.81;100.00
1736;BME280;865;53.672;10.250;2023-04-07T12:32:35;101659.50;;;9.78;87.62
1736;BME280;865;53.672;10.250;2023-04-07T12:35:03;101663.84;;;9.82;95.12
1736;BME280;865;53.672;10.250;2023-04-07T12:37:29;101666.47;;;9.74;94.45
1736;BME280;865;53.672;10.250;2023-04-07T12:39:56;101669.94;;;9.75;94.64
1736;BME280;865;53.672;10.250;2023-04-07T12:42:23;101662.97;;;9.88;100.00
1736;BME280;865;53.672;10.250;2023-04-07T12:44:50;101666.41;;;10.14;100.00
1736;BME280;865;53.672;10.250;2023-04-07T12:47:16;101675.06;;;10.21;100.00
1736;BME280;865;53.672;10.250;2023-04-07T12:49:43;101670.75;;;10.04;100.00
1736;BME280;865;53.672;10.250;2023-04-07T12:52:09;101670.75;;;10.03;100.00
1736;BME280;865;53.672;10.250;2023-04-07T12:54:35;101668.09;;;10.29;100.00
1736;BME280;865;53.672;10.250;2023-04-07T12:57:02;101664.63;;;10.18;100.00
1736;BME280;865;53.672;10.250;2023-04-07T12:59:28;101676.03;;;9.65;100.00
1736;BME280;865;53.672;10.250;2023-04-07T13:01:55;101673.41;;;9.72;100.00
1736;BME280;865;53.672;10.250;2023-04-07T13:04:22;101669.91;;;9.81;99.52
1736;BME280;865;53.672;10.250;2023-04-07T13:06:50;101668.13;;;10.11;95.74
1736;BME280;865;53.672;10.250;2023-04-07T13:09:16;101672.50;;;10.09;100.00
1736;BME280;865;53.672;10.250;2023-04-07T13:11:42;101677.75;;;9.66;100.00
1736;BME280;865;53.672;10.250;2023-04-07T13:14:08;101681.22;;;9.77;100.00
1736;BME280;865;53.672;10.250;2023-04-07T13:16:35;101676.00;;;9.80;100.00
1736;BME280;865;53.672;10.250;2023-04-07T13:19:01;101678.66;;;9.37;100.00
1736;BME280;865;53.672;10.250;2023-04-07T13:21:29;101683.84;;;9.58;100.00
1736;BME280;865;53.672;10.250;2023-04-07T13:23:58;101686.47;;;9.43;100.00
1736;BME280;865;53.672;10.250;2023-04-07T13:26:24;101681.25;;;9.49;100.00
1736;BME280;865;53.672;10.250;2023-04-07T13:28:51;101682.09;;;9.45;100.00
1736;BME280;865;53.672;10.250;2023-04-07T13:31:18;101681.25;;;9.37;100.00